CheckWX is a tool to help pilots better visualize weather data.  It is not intended as a substitute for an official pre-flight weather briefing.

21:38:34 UTC

KHDN METAR
Yampa Valley Airport
Hayden, Colorado, USA
Current

43 mins ago

KHDN 052056Z AUTO 25003KT 8SM OVC014 02/01 A3009 RMK AO2 UPB26E55RAB40E49SNE26 SLP204 P0007 60032 T00170006 53009 FZRANO
Observed
Dec-5 @ 20:56 UTC
Wind
  • 250° at 3 KTS
Visibility
8 SM
Flight Rules
MVFR
Cloud Levels
  • Overcast at 1,400' AGL
Temperature
C / 36°F
Dewpoint
C / 34°F
Humidity
93%
Altimeter
30.09" Hg
Pressure
1018.92 hPa
Current Rain
0.07"
Previous

1 hour ago

KHDN 052037Z AUTO 29003KT 7SM UP SCT002 OVC014 02/01 A3009 RMK AO2 UPB26SNE26 P0004 FZRANO
Observed
Dec-5 @ 20:37 UTC
Wind
  • 290° at 3 KTS
Visibility
7 SM
Flight Rules
MVFR
Conditions
Unknown precipitation
Cloud Levels
  • Scattered at 200' AGL
  • Overcast at 1,400' AGL
Temperature
C / 36°F
Dewpoint
C / 34°F
Humidity
93%
Altimeter
30.09" Hg
Pressure
1018.92 hPa
Current Rain
0.04"
Previous

1 hour ago

KHDN 052027Z AUTO 00000KT 1 1/4SM UP BR BKN002 OVC014 01/01 A3008 RMK AO2 VIS 1/2V5 UPB26SNE26 P0004 FZRANO
Observed
Dec-5 @ 20:27 UTC
Visibility
1 1/4 SM
Flight Rules
LIFR
Conditions
Mist, Unknown precipitation
Cloud Levels
  • Broken at 200' AGL
  • Overcast at 1,400' AGL
Temperature
C / 34°F
Dewpoint
C / 34°F
Humidity
100%
Altimeter
30.08" Hg
Pressure
1018.62 hPa
Current Rain
0.04"